Portland, Tennessee
Current Conditions -  °F | °C
As of 10:35 AM on Friday 21 Nov 2014 (Local Time) from KM91 Reporting Station
Clear Clear  
Wind Chill: 39°   Ceiling: Unl
Heat Index: 43°   Visibility: 10mi
Dew Point: 23°   Wind: 6mph
Humidity: 46%   Direction: 90°E
Pressure: 30.45"   Gusts: NA
Location:  36.58°N, 86.51°W
Report Text: KM91 211635Z AUTO 09005KT 10SM CLR 06/M05 A3045 RMK
Loading
Personal Weather Stations






























Interactive Weather Map New forecast layout! Learn more

10-Day Weather Forecast

Advertisements
Track Severe Weather on mobile